createdAt,value
2022-12-24T00:00:03.733Z,22.40
2022-12-24T00:02:36.862Z,22.40
2022-12-24T00:05:10.284Z,22.40
2022-12-24T00:07:43.123Z,22.40
2022-12-24T00:10:16.211Z,22.40
2022-12-24T00:12:49.076Z,22.50
2022-12-24T00:15:22.008Z,22.50
2022-12-24T00:17:54.813Z,22.50
2022-12-24T00:20:27.745Z,22.50
2022-12-24T00:23:00.895Z,22.50
2022-12-24T00:25:34.007Z,22.50
2022-12-24T00:28:06.957Z,22.50
2022-12-24T00:30:41.104Z,22.40
2022-12-24T00:33:16.202Z,22.40
2022-12-24T00:35:48.321Z,22.40
2022-12-24T00:38:21.235Z,22.40
2022-12-24T00:40:54.147Z,22.40
2022-12-24T00:43:27.114Z,22.30
2022-12-24T00:46:00.578Z,22.40
2022-12-24T00:48:33.439Z,22.30
2022-12-24T00:51:08.956Z,22.30
2022-12-24T00:53:40.621Z,22.30
2022-12-24T00:56:13.763Z,22.30
2022-12-24T00:58:47.036Z,22.30
2022-12-24T01:01:20.736Z,22.30
2022-12-24T01:03:54.045Z,22.30
2022-12-24T01:06:31.547Z,22.30
2022-12-24T01:09:04.498Z,22.30
2022-12-24T01:11:37.716Z,22.30
2022-12-24T01:14:10.592Z,22.30
2022-12-24T01:16:43.357Z,22.30
2022-12-24T01:19:16.244Z,22.30
2022-12-24T01:21:49.301Z,22.30
2022-12-24T01:24:42.106Z,22.30
2022-12-24T01:27:18.065Z,22.30
2022-12-24T01:29:51.108Z,22.30
2022-12-24T01:32:23.977Z,22.30
2022-12-24T01:34:56.859Z,22.30
2022-12-24T01:37:29.519Z,22.30
2022-12-24T01:40:19.760Z,22.30
2022-12-24T01:43:03.617Z,22.40
2022-12-24T01:45:41.491Z,22.50
2022-12-24T01:48:24.921Z,22.50
2022-12-24T01:51:11.548Z,22.60
2022-12-24T01:53:46.157Z,22.60
2022-12-24T01:56:19.770Z,22.70
2022-12-24T01:58:54.486Z,22.70
2022-12-24T02:01:27.706Z,22.80
2022-12-24T02:04:00.615Z,22.80
2022-12-24T02:06:36.227Z,22.90
2022-12-24T02:09:09.106Z,22.90
2022-12-24T02:11:43.207Z,22.90
2022-12-24T02:14:17.105Z,22.90
2022-12-24T02:17:24.996Z,22.90
2022-12-24T02:20:14.762Z,22.90
2022-12-24T02:23:06.266Z,22.90
2022-12-24T02:25:47.530Z,22.90
2022-12-24T02:28:47.578Z,23.00
2022-12-24T02:31:40.712Z,23.00
2022-12-24T02:34:20.185Z,23.00
2022-12-24T02:36:55.077Z,23.00
2022-12-24T02:39:45.946Z,23.00
2022-12-24T02:42:21.263Z,23.00
2022-12-24T02:44:59.691Z,23.00
2022-12-24T02:47:34.199Z,23.00
2022-12-24T02:50:09.437Z,23.00
2022-12-24T02:52:44.437Z,23.00
2022-12-24T02:55:25.268Z,23.00
2022-12-24T02:58:16.598Z,23.00
2022-12-24T03:01:20.250Z,23.00
2022-12-24T03:04:04.699Z,22.90
2022-12-24T03:06:52.104Z,22.90
2022-12-24T03:09:37.047Z,22.80
2022-12-24T03:12:11.759Z,22.90
2022-12-24T03:14:45.839Z,22.80
2022-12-24T03:17:19.260Z,22.80
2022-12-24T03:19:52.243Z,22.80
2022-12-24T03:22:25.910Z,22.90
2022-12-24T03:24:59.386Z,22.80
2022-12-24T03:27:33.566Z,22.80
2022-12-24T03:30:08.138Z,22.80
2022-12-24T03:32:41.732Z,22.80
2022-12-24T03:35:15.101Z,22.80
2022-12-24T03:37:48.225Z,22.80
2022-12-24T03:40:20.970Z,22.80
2022-12-24T03:42:53.865Z,22.80
2022-12-24T03:45:26.831Z,22.80
2022-12-24T03:47:59.655Z,22.80
2022-12-24T03:50:32.381Z,22.80
2022-12-24T03:53:05.318Z,22.80
2022-12-24T03:55:38.277Z,22.80
2022-12-24T03:58:11.240Z,22.80
2022-12-24T04:00:44.845Z,22.80
2022-12-24T04:03:18.861Z,22.80
2022-12-24T04:05:51.788Z,22.80
2022-12-24T04:08:24.868Z,22.80
2022-12-24T04:11:07.762Z,22.70
2022-12-24T04:13:42.188Z,22.70
2022-12-24T04:16:25.100Z,22.70
2022-12-24T04:18:58.437Z,22.70
2022-12-24T04:21:31.477Z,22.70
2022-12-24T04:24:06.519Z,22.70
2022-12-24T04:26:59.646Z,22.70
2022-12-24T04:29:34.860Z,22.70
2022-12-24T04:32:07.994Z,22.70
2022-12-24T04:34:41.198Z,22.70
2022-12-24T04:37:17.531Z,22.70
2022-12-24T04:39:50.583Z,22.70
2022-12-24T04:42:23.708Z,22.60
2022-12-24T04:44:56.831Z,22.60
2022-12-24T04:47:29.761Z,22.70
2022-12-24T04:50:03.427Z,22.60
2022-12-24T04:52:37.192Z,22.60
2022-12-24T04:55:10.402Z,22.60
2022-12-24T04:57:45.339Z,22.60
2022-12-24T05:00:18.063Z,22.60
2022-12-24T05:02:51.164Z,22.60
2022-12-24T05:05:24.056Z,22.60
2022-12-24T05:07:59.182Z,22.50
2022-12-24T05:10:32.084Z,22.50
2022-12-24T05:13:04.977Z,22.50
2022-12-24T05:15:37.882Z,22.50
2022-12-24T05:18:10.708Z,22.50
2022-12-24T05:20:44.817Z,22.50
2022-12-24T05:23:39.527Z,22.50
2022-12-24T05:26:26.475Z,22.50
2022-12-24T05:29:01.205Z,22.40
2022-12-24T05:31:36.083Z,22.40
2022-12-24T05:34:08.965Z,22.40
2022-12-24T05:36:42.362Z,22.40
2022-12-24T05:39:17.049Z,22.40
2022-12-24T05:41:50.328Z,22.40
2022-12-24T05:44:26.797Z,22.30
2022-12-24T05:47:01.579Z,22.30
2022-12-24T05:49:36.353Z,22.30
2022-12-24T05:52:18.534Z,22.30
2022-12-24T05:54:51.003Z,22.30
2022-12-24T05:57:23.946Z,22.20
2022-12-24T05:59:56.708Z,22.20
2022-12-24T06:02:29.795Z,22.20
2022-12-24T06:05:02.738Z,22.20
2022-12-24T06:07:39.870Z,22.20
2022-12-24T06:10:13.249Z,22.10
2022-12-24T06:12:46.132Z,22.10
2022-12-24T06:15:23.890Z,22.10
2022-12-24T06:17:53.336Z,22.10
2022-12-24T06:20:26.110Z,22.10
2022-12-24T06:22:59.009Z,22.10
2022-12-24T06:25:31.908Z,22.10
2022-12-24T06:28:05.702Z,22.10
2022-12-24T06:30:38.997Z,22.10
2022-12-24T06:33:11.816Z,22.00
2022-12-24T06:35:44.748Z,22.00
2022-12-24T06:38:17.754Z,22.00
2022-12-24T06:40:53.631Z,22.00
2022-12-24T06:43:26.484Z,22.00
2022-12-24T06:45:59.567Z,22.00
2022-12-24T06:48:32.356Z,21.90
2022-12-24T06:51:06.727Z,21.90
2022-12-24T06:53:39.560Z,21.90
2022-12-24T06:56:14.355Z,21.90
2022-12-24T06:58:47.880Z,21.90
2022-12-24T07:01:22.113Z,21.90
2022-12-24T07:03:55.344Z,21.80
2022-12-24T07:06:32.587Z,21.80
2022-12-24T07:09:05.432Z,21.80
2022-12-24T07:11:38.455Z,21.80
2022-12-24T07:14:11.375Z,21.80
2022-12-24T07:16:44.452Z,21.70
2022-12-24T07:19:17.847Z,21.70
2022-12-24T07:21:51.765Z,21.70
2022-12-24T07:24:24.794Z,21.70
2022-12-24T07:26:57.631Z,21.70
2022-12-24T07:29:31.510Z,21.60
2022-12-24T07:32:04.734Z,21.60
2022-12-24T07:34:41.878Z,21.60
2022-12-24T07:37:14.842Z,21.60
2022-12-24T07:39:47.845Z,21.50
2022-12-24T07:42:20.775Z,21.50
2022-12-24T07:44:53.821Z,21.50
2022-12-24T07:47:31.352Z,21.50
2022-12-24T07:50:09.837Z,21.40
2022-12-24T07:52:59.300Z,21.40
2022-12-24T07:55:32.917Z,21.40
2022-12-24T07:58:05.871Z,21.40
2022-12-24T08:00:38.793Z,21.40
2022-12-24T08:03:11.753Z,21.40
2022-12-24T08:05:44.624Z,21.40
2022-12-24T08:08:17.579Z,21.40
2022-12-24T08:10:50.796Z,21.30
2022-12-24T08:13:23.660Z,21.30
2022-12-24T08:15:56.710Z,21.30
2022-12-24T08:18:29.838Z,21.20
2022-12-24T08:21:07.180Z,21.20
2022-12-24T08:23:40.899Z,21.20
2022-12-24T08:26:15.490Z,21.20
2022-12-24T08:28:49.157Z,21.20
2022-12-24T08:31:22.476Z,21.10
2022-12-24T08:33:55.455Z,21.10
2022-12-24T08:36:28.623Z,21.00
2022-12-24T08:39:01.509Z,21.00
2022-12-24T08:41:35.815Z,21.00
2022-12-24T08:44:08.613Z,21.00
2022-12-24T08:46:41.887Z,21.00
2022-12-24T08:49:14.921Z,20.90
2022-12-24T08:51:47.874Z,20.90
2022-12-24T08:54:20.971Z,20.90
2022-12-24T08:56:54.842Z,20.90
2022-12-24T08:59:28.063Z,20.80
2022-12-24T09:02:01.224Z,20.80
2022-12-24T09:04:34.143Z,20.80
2022-12-24T09:07:06.954Z,20.70
2022-12-24T09:09:39.726Z,20.70
2022-12-24T09:12:13.469Z,20.70
2022-12-24T09:14:46.419Z,20.70
2022-12-24T09:17:19.199Z,20.60
2022-12-24T09:19:52.366Z,20.60
2022-12-24T09:22:26.581Z,20.60
2022-12-24T09:25:07.028Z,20.60
2022-12-24T09:27:42.796Z,20.60
2022-12-24T09:30:16.618Z,20.50
2022-12-24T09:32:49.977Z,20.50
2022-12-24T09:35:23.159Z,20.50
2022-12-24T09:37:57.437Z,20.50
2022-12-24T09:40:32.422Z,20.40
2022-12-24T09:43:06.581Z,20.40
2022-12-24T09:45:41.230Z,20.40
2022-12-24T09:48:18.939Z,20.40
2022-12-24T09:51:08.277Z,20.30
2022-12-24T09:54:06.914Z,20.30
2022-12-24T09:56:44.745Z,20.30
2022-12-24T09:59:28.981Z,20.30
2022-12-24T10:02:03.182Z,20.20
2022-12-24T10:04:36.784Z,20.20
2022-12-24T10:07:29.396Z,20.20
2022-12-24T10:10:23.693Z,20.20
2022-12-24T10:13:15.211Z,20.10
2022-12-24T10:16:01.680Z,20.10
2022-12-24T10:18:54.772Z,20.10
2022-12-24T10:22:03.113Z,20.00
2022-12-24T10:24:46.363Z,20.00
2022-12-24T10:27:19.644Z,20.00
2022-12-24T10:30:00.703Z,20.10
2022-12-24T10:32:38.145Z,20.10
2022-12-24T10:35:22.327Z,20.10
2022-12-24T10:37:55.829Z,20.00
2022-12-24T10:40:47.439Z,20.10
2022-12-24T10:43:25.258Z,20.00
2022-12-24T10:46:09.089Z,20.00
2022-12-24T10:49:00.748Z,20.00
2022-12-24T10:51:53.582Z,19.90
2022-12-24T10:54:28.088Z,19.90
2022-12-24T10:57:05.640Z,19.90
2022-12-24T10:59:43.596Z,19.90
2022-12-24T11:02:35.179Z,19.80
2022-12-24T11:05:14.438Z,19.80
2022-12-24T11:07:52.569Z,19.80
2022-12-24T11:10:28.901Z,19.80
2022-12-24T11:13:35.791Z,19.80
2022-12-24T11:15:38.238Z,19.70
2022-12-24T11:18:12.923Z,19.70
2022-12-24T11:20:47.203Z,19.70
2022-12-24T11:23:21.017Z,19.70
2022-12-24T11:25:55.227Z,19.70
2022-12-24T11:28:30.083Z,19.60
2022-12-24T11:31:08.024Z,19.60
2022-12-24T11:33:43.504Z,19.60
2022-12-24T11:36:18.151Z,19.60
2022-12-24T11:38:59.055Z,19.60
2022-12-24T11:41:33.223Z,19.60
2022-12-24T11:44:08.347Z,19.60
2022-12-24T11:46:47.743Z,19.60
2022-12-24T11:49:30.258Z,19.60
2022-12-24T11:52:16.308Z,19.60
2022-12-24T11:55:16.312Z,19.60
2022-12-24T11:57:48.389Z,19.60
2022-12-24T12:00:23.541Z,19.50
2022-12-24T12:02:58.046Z,19.50
2022-12-24T12:05:35.799Z,19.50
2022-12-24T12:08:14.297Z,19.50
2022-12-24T12:10:49.330Z,19.50
2022-12-24T12:13:31.686Z,19.50
2022-12-24T12:16:18.535Z,19.50
2022-12-24T12:19:14.802Z,19.50
2022-12-24T12:21:44.244Z,19.50
2022-12-24T12:24:32.058Z,19.50
2022-12-24T12:27:22.178Z,19.50
2022-12-24T12:29:56.805Z,19.50
2022-12-24T12:32:42.685Z,19.40
2022-12-24T12:35:20.197Z,19.40
2022-12-24T12:38:11.424Z,19.40
2022-12-24T12:41:01.150Z,19.40
2022-12-24T12:43:41.275Z,19.40
2022-12-24T12:46:25.382Z,19.40
2022-12-24T12:49:14.596Z,19.40
2022-12-24T12:51:55.149Z,19.40
2022-12-24T12:54:48.018Z,19.40
2022-12-24T12:57:22.980Z,19.30
2022-12-24T12:59:57.478Z,19.30
2022-12-24T13:02:47.390Z,19.30
2022-12-24T13:05:25.766Z,19.30
2022-12-24T13:08:06.567Z,19.30
2022-12-24T13:10:56.400Z,19.20
2022-12-24T13:13:46.503Z,19.20
2022-12-24T13:16:39.657Z,19.20
2022-12-24T13:19:43.219Z,19.10
2022-12-24T13:22:20.734Z,19.10
2022-12-24T13:24:55.366Z,19.10
2022-12-24T13:27:36.078Z,19.10
2022-12-24T13:30:31.109Z,19.10
2022-12-24T13:33:04.216Z,19.10
2022-12-24T13:35:40.205Z,19.10
2022-12-24T13:38:23.615Z,19.10
2022-12-24T13:40:56.967Z,19.10
2022-12-24T13:43:31.239Z,19.10
2022-12-24T13:46:05.080Z,19.10
2022-12-24T13:48:39.114Z,19.10
2022-12-24T13:51:25.620Z,19.10
2022-12-24T13:54:02.532Z,19.10
2022-12-24T13:56:41.824Z,19.10
2022-12-24T13:59:16.706Z,19.10
2022-12-24T14:01:50.243Z,19.10
2022-12-24T14:04:34.134Z,19.10
2022-12-24T14:07:08.287Z,19.10
2022-12-24T14:09:45.847Z,19.10
2022-12-24T14:12:35.611Z,19.10
2022-12-24T14:15:25.606Z,19.10
2022-12-24T14:17:58.881Z,19.00
2022-12-24T14:20:31.854Z,19.00
2022-12-24T14:23:05.055Z,19.00
2022-12-24T14:25:37.885Z,19.00
2022-12-24T14:28:12.792Z,19.00
2022-12-24T14:30:45.619Z,19.00
2022-12-24T14:33:37.758Z,19.00
2022-12-24T14:36:12.721Z,19.00
2022-12-24T14:38:50.327Z,18.90
2022-12-24T14:41:31.429Z,18.90
2022-12-24T14:44:32.258Z,18.90
2022-12-24T14:47:06.410Z,18.90
2022-12-24T14:49:44.266Z,18.90
2022-12-24T14:53:04.599Z,18.90
2022-12-24T14:55:36.142Z,18.90
2022-12-24T14:58:25.913Z,18.80
2022-12-24T15:01:01.218Z,18.80
2022-12-24T15:03:35.966Z,18.80
2022-12-24T15:06:10.110Z,18.80
2022-12-24T15:08:44.739Z,18.80
2022-12-24T15:11:19.308Z,18.80
2022-12-24T15:13:55.878Z,18.80
2022-12-24T15:16:37.121Z,18.80
2022-12-24T15:19:11.945Z,18.80
2022-12-24T15:21:45.995Z,18.80
2022-12-24T15:24:33.926Z,18.80
2022-12-24T15:27:09.115Z,18.70
2022-12-24T15:29:43.916Z,18.70
2022-12-24T15:32:18.756Z,18.70
2022-12-24T15:34:54.037Z,18.70
2022-12-24T15:37:31.816Z,18.70
2022-12-24T15:40:15.314Z,18.70
2022-12-24T15:42:48.351Z,18.70
2022-12-24T15:45:33.610Z,18.70
2022-12-24T15:48:14.080Z,18.70
2022-12-24T15:50:51.618Z,18.70
2022-12-24T15:53:32.634Z,18.70
2022-12-24T15:56:14.439Z,18.60
2022-12-24T15:58:48.402Z,18.60
2022-12-24T16:01:23.730Z,18.60
2022-12-24T16:03:59.083Z,18.60
2022-12-24T16:06:32.121Z,18.60
2022-12-24T16:09:05.066Z,18.60
2022-12-24T16:11:41.397Z,18.60
2022-12-24T16:14:22.871Z,18.60
2022-12-24T16:16:56.516Z,18.60
2022-12-24T16:19:37.684Z,18.60
2022-12-24T16:22:08.106Z,18.60
2022-12-24T16:24:41.347Z,18.60
2022-12-24T16:27:15.846Z,18.60
2022-12-24T16:29:49.377Z,18.60
2022-12-24T16:32:33.586Z,18.60
2022-12-24T16:35:08.073Z,18.60
2022-12-24T16:37:41.462Z,18.60
2022-12-24T16:40:23.320Z,18.60
2022-12-24T16:43:09.907Z,18.60
2022-12-24T16:45:43.083Z,18.60
2022-12-24T16:48:17.606Z,18.60
2022-12-24T16:50:53.085Z,18.60
2022-12-24T16:53:26.991Z,18.60
2022-12-24T16:55:59.989Z,18.60
2022-12-24T16:58:33.120Z,18.60
2022-12-24T17:01:13.161Z,18.60
2022-12-24T17:03:48.375Z,18.60
2022-12-24T17:06:20.083Z,18.60
2022-12-24T17:08:53.197Z,18.60
2022-12-24T17:11:27.444Z,18.60
2022-12-24T17:14:04.370Z,18.60
2022-12-24T17:16:35.023Z,18.60
2022-12-24T17:19:07.979Z,18.60
2022-12-24T17:21:41.158Z,18.50
2022-12-24T17:24:14.512Z,18.50
2022-12-24T17:26:47.614Z,18.60
2022-12-24T17:29:20.375Z,18.60
2022-12-24T17:31:53.725Z,18.60
2022-12-24T17:34:26.607Z,18.60
2022-12-24T17:36:59.993Z,18.60
2022-12-24T17:39:34.880Z,18.50
2022-12-24T17:42:07.789Z,18.60
2022-12-24T17:44:40.564Z,18.60
2022-12-24T17:47:13.418Z,18.60
2022-12-24T17:49:46.130Z,18.60
2022-12-24T17:52:18.899Z,18.60
2022-12-24T17:54:51.714Z,18.60
2022-12-24T17:57:24.544Z,18.70
2022-12-24T17:59:58.778Z,18.70
2022-12-24T18:02:32.147Z,18.70
2022-12-24T18:05:05.089Z,18.70
2022-12-24T18:07:38.103Z,18.70
2022-12-24T18:10:11.905Z,18.80
2022-12-24T18:12:44.806Z,18.80
2022-12-24T18:15:18.934Z,18.90
2022-12-24T18:17:56.975Z,18.90
2022-12-24T18:20:30.120Z,18.90
2022-12-24T18:23:03.271Z,18.90
2022-12-24T18:25:36.453Z,19.00
2022-12-24T18:31:18.118Z,19.00
2022-12-24T18:33:51.818Z,19.10
2022-12-24T18:36:25.259Z,19.10
2022-12-24T18:39:04.270Z,19.10
2022-12-24T18:41:37.893Z,19.10
2022-12-24T18:44:10.959Z,19.20
2022-12-24T18:46:43.807Z,19.20
2022-12-24T18:49:16.619Z,19.20
2022-12-24T18:51:49.227Z,19.30
2022-12-24T18:54:22.377Z,19.30
2022-12-24T18:56:58.136Z,19.30
2022-12-24T18:59:31.165Z,19.40
2022-12-24T19:02:04.151Z,19.40
2022-12-24T19:04:37.396Z,19.50
2022-12-24T19:07:10.287Z,19.50
2022-12-24T19:09:43.533Z,19.60
2022-12-24T19:12:16.437Z,19.60
2022-12-24T19:14:58.393Z,19.70
2022-12-24T19:17:31.423Z,19.70
2022-12-24T19:20:04.542Z,19.80
2022-12-24T19:22:37.259Z,19.80
2022-12-24T19:25:11.321Z,19.90
2022-12-24T19:27:44.307Z,20.00
2022-12-24T19:30:17.680Z,20.00
2022-12-24T19:32:50.564Z,20.00
2022-12-24T19:35:23.473Z,20.00
2022-12-24T19:37:56.519Z,20.10
2022-12-24T19:40:30.447Z,20.10
2022-12-24T19:43:04.090Z,20.20
2022-12-24T19:45:37.167Z,20.20
2022-12-24T19:48:11.073Z,20.20
2022-12-24T19:50:46.475Z,20.30
2022-12-24T19:53:19.501Z,20.30
2022-12-24T19:55:52.434Z,20.30
2022-12-24T19:58:25.292Z,20.40
2022-12-24T20:01:07.165Z,20.40
2022-12-24T20:03:38.481Z,20.40
2022-12-24T20:06:11.655Z,20.40
2022-12-24T20:08:44.430Z,20.50
2022-12-24T20:11:18.922Z,20.60
2022-12-24T20:13:55.400Z,20.60
2022-12-24T20:16:28.591Z,20.70
2022-12-24T20:19:06.252Z,20.70
2022-12-24T20:21:39.896Z,20.70
2022-12-24T20:24:13.123Z,20.80
2022-12-24T20:26:46.109Z,20.80
2022-12-24T20:29:18.947Z,20.90
2022-12-24T20:31:51.831Z,20.90
2022-12-24T20:34:24.953Z,21.00
2022-12-24T20:37:12.127Z,21.00
2022-12-24T20:39:46.490Z,21.10
2022-12-24T20:42:19.587Z,21.10
2022-12-24T20:44:53.087Z,21.10
2022-12-24T20:47:34.824Z,21.10
2022-12-24T20:50:07.969Z,21.10
2022-12-24T20:52:43.483Z,21.10
2022-12-24T20:55:16.527Z,21.20
2022-12-24T20:57:50.763Z,21.30
2022-12-24T21:00:24.817Z,21.30
2022-12-24T21:02:57.827Z,21.30
2022-12-24T21:05:33.633Z,21.30
2022-12-24T21:08:05.263Z,21.40
2022-12-24T21:10:38.866Z,21.40
2022-12-24T21:13:12.460Z,21.50
2022-12-24T21:15:45.307Z,21.50
2022-12-24T21:18:18.420Z,21.60
2022-12-24T21:20:51.283Z,21.70
2022-12-24T21:23:24.056Z,21.70
2022-12-24T21:26:07.686Z,21.80
2022-12-24T21:28:40.566Z,21.90
2022-12-24T21:31:14.824Z,21.90
2022-12-24T21:33:47.770Z,21.90
2022-12-24T21:36:21.439Z,22.00
2022-12-24T21:38:54.455Z,22.10
2022-12-24T21:41:27.906Z,22.10
2022-12-24T21:44:02.489Z,22.10
2022-12-24T21:46:35.724Z,22.20
2022-12-24T21:49:25.934Z,22.20
2022-12-24T21:51:58.849Z,22.30
2022-12-24T21:54:32.837Z,22.30
2022-12-24T21:57:24.878Z,22.30
2022-12-24T21:59:59.024Z,22.30
2022-12-24T22:02:32.102Z,22.30
2022-12-24T22:05:05.063Z,22.30
2022-12-24T22:07:55.331Z,22.30
2022-12-24T22:10:45.746Z,22.30
2022-12-24T22:13:18.784Z,22.30
2022-12-24T22:15:53.579Z,22.30
2022-12-24T22:18:28.199Z,22.30
2022-12-24T22:21:02.024Z,22.30
2022-12-24T22:23:40.465Z,22.30
2022-12-24T22:26:24.133Z,22.30
2022-12-24T22:28:57.165Z,22.30
2022-12-24T22:31:30.078Z,22.30
2022-12-24T22:34:03.243Z,22.30
2022-12-24T22:36:36.203Z,22.30
2022-12-24T22:39:11.393Z,22.30
2022-12-24T22:41:44.242Z,22.40
2022-12-24T22:44:17.343Z,22.40
2022-12-24T22:46:50.177Z,22.40
2022-12-24T22:49:23.047Z,22.50
2022-12-24T22:52:00.272Z,22.50
2022-12-24T22:54:33.090Z,22.60
2022-12-24T22:57:05.939Z,22.70
2022-12-24T22:59:38.914Z,22.70
2022-12-24T23:02:12.452Z,22.70
2022-12-24T23:04:46.146Z,22.70
2022-12-24T23:07:19.053Z,22.70
2022-12-24T23:09:51.977Z,22.70
2022-12-24T23:12:25.974Z,22.70
2022-12-24T23:15:02.366Z,22.70
2022-12-24T23:17:35.619Z,22.70
2022-12-24T23:20:08.612Z,22.70
2022-12-24T23:22:41.434Z,22.70
2022-12-24T23:25:14.923Z,22.70
2022-12-24T23:27:47.798Z,22.70
2022-12-24T23:30:21.645Z,22.70
2022-12-24T23:32:54.635Z,22.70
2022-12-24T23:35:27.473Z,22.70
2022-12-24T23:38:00.505Z,22.80
2022-12-24T23:40:37.562Z,22.80
2022-12-24T23:43:10.424Z,22.90
2022-12-24T23:45:43.478Z,23.00
2022-12-24T23:48:16.445Z,23.00
2022-12-24T23:50:49.956Z,23.10
2022-12-24T23:53:23.075Z,23.00
2022-12-24T23:55:56.080Z,23.00
2022-12-24T23:58:28.917Z,23.00
